Terminal Aerodrome Forecast
Issued by NWS

Home | Current Version | Previous Version | Text Only | Print | Product List | Glossary On
Versions: 1 2 3 4 5 6 7 8 9 10 11 12 13 14 15 16 17 18 19 20
000
FTUS43 KDMX 301133
TAFFOD
TAF
KFOD 301133Z 3012/3112 00000KT P6SM BKN040
     FM301700 04003KT P6SM SCT100
     FM310900 12003KT 3SM BR SCT080=

USA.gov is the U.S. government's official web portal to all federal, state and local government web resources and services.